sensor_id;sensor_type;location;lat;lon;timestamp;pressure;altitude;pressure_sealevel;temperature;humidity
7337;BME280;54510;42.016;23.098;2022-07-22T00:02:13;-21801.91;;;24.43;49.22
7337;BME280;54510;42.016;23.098;2022-07-22T00:04:38;-21808.19;;;24.66;48.84
7337;BME280;54510;42.016;23.098;2022-07-22T00:07:04;-21801.50;;;24.42;49.79
7337;BME280;54510;42.016;23.098;2022-07-22T00:09:29;-21801.38;;;24.41;50.06
7337;BME280;54510;42.016;23.098;2022-07-22T00:11:55;-21795.78;;;24.20;50.28
7337;BME280;54510;42.016;23.098;2022-07-22T00:14:21;-21798.91;;;24.32;50.19
7337;BME280;54510;42.016;23.098;2022-07-22T00:16:46;-21792.22;;;24.07;50.41
7337;BME280;54510;42.016;23.098;2022-07-22T00:19:12;-21793.19;;;24.11;50.59
7337;BME280;54510;42.016;23.098;2022-07-22T00:21:38;-21782.13;;;23.70;51.63
7337;BME280;54510;42.016;23.098;2022-07-22T00:24:04;-21785.81;;;23.83;52.28
7337;BME280;54510;42.016;23.098;2022-07-22T00:26:29;-21785.81;;;23.83;51.96
7337;BME280;54510;42.016;23.098;2022-07-22T00:28:55;-21785.53;;;23.82;51.50
7337;BME280;54510;42.016;23.098;2022-07-22T00:31:20;-21780.78;;;23.65;51.83
7337;BME280;54510;42.016;23.098;2022-07-22T00:36:11;-21779.28;;;23.59;52.27
7337;BME280;54510;42.016;23.098;2022-07-22T00:38:38;-21779.28;;;23.59;52.19
7337;BME280;54510;42.016;23.098;2022-07-22T00:41:04;-21778.44;;;23.56;52.10
7337;BME280;54510;42.016;23.098;2022-07-22T00:44:04;-21780.09;;;23.62;52.32
7337;BME280;54510;42.016;23.098;2022-07-22T00:46:30;-21783.38;;;23.74;52.03
7337;BME280;54510;42.016;23.098;2022-07-22T00:48:56;-21782.28;;;23.70;51.87
7337;BME280;54510;42.016;23.098;2022-07-22T00:51:24;-21781.19;;;23.66;51.80
7337;BME280;54510;42.016;23.098;2022-07-22T00:53:51;-21779.28;;;23.59;52.22
7337;BME280;54510;42.016;23.098;2022-07-22T00:56:18;-21777.38;;;23.52;52.86
7337;BME280;54510;42.016;23.098;2022-07-22T00:58:45;-21777.38;;;23.52;52.97
7337;BME280;54510;42.016;23.098;2022-07-22T01:01:10;-21775.84;;;23.46;52.45
7337;BME280;54510;42.016;23.098;2022-07-22T01:03:36;-21772.44;;;23.34;52.79
7337;BME280;54510;42.016;23.098;2022-07-22T01:06:03;-21771.34;;;23.30;53.15
7337;BME280;54510;42.016;23.098;2022-07-22T01:08:29;-21766.84;;;23.13;53.51
7337;BME280;54510;42.016;23.098;2022-07-22T01:11:06;-21767.81;;;23.16;53.62
7337;BME280;54510;42.016;23.098;2022-07-22T01:13:31;-21772.72;;;23.35;53.07
7337;BME280;54510;42.016;23.098;2022-07-22T01:15:57;-21773.00;;;23.36;53.37
7337;BME280;54510;42.016;23.098;2022-07-22T01:20:48;-21779.69;;;23.60;52.45
7337;BME280;54510;42.016;23.098;2022-07-22T01:23:13;-21779.53;;;23.60;52.26
7337;BME280;54510;42.016;23.098;2022-07-22T01:25:38;-21778.72;;;23.57;51.12
7337;BME280;54510;42.016;23.098;2022-07-22T01:28:04;-21777.38;;;23.52;51.53
7337;BME280;54510;42.016;23.098;2022-07-22T01:30:29;-21778.31;;;23.55;51.09
7337;BME280;54510;42.016;23.098;2022-07-22T01:32:55;-21779.81;;;23.61;51.03
7337;BME280;54510;42.016;23.098;2022-07-22T01:35:20;-21783.22;;;23.74;51.33
7337;BME280;54510;42.016;23.098;2022-07-22T01:37:45;-21781.19;;;23.66;50.84
7337;BME280;54510;42.016;23.098;2022-07-22T01:40:11;-21779.94;;;23.61;50.85
7337;BME280;54510;42.016;23.098;2022-07-22T01:42:37;-21777.38;;;23.52;51.29
7337;BME280;54510;42.016;23.098;2022-07-22T01:45:03;-21775.72;;;23.46;51.08
7337;BME280;54510;42.016;23.098;2022-07-22T01:47:28;-21782.00;;;23.69;50.98
7337;BME280;54510;42.016;23.098;2022-07-22T01:49:54;-21779.53;;;23.60;51.10
7337;BME280;54510;42.016;23.098;2022-07-22T01:52:19;-21773.41;;;23.37;51.38
7337;BME280;54510;42.016;23.098;2022-07-22T01:54:44;-21767.81;;;23.16;51.93
7337;BME280;54510;42.016;23.098;2022-07-22T01:57:10;-21765.88;;;23.09;52.25
7337;BME280;54510;42.016;23.098;2022-07-22T01:59:35;-21766.31;;;23.11;52.14
7337;BME280;54510;42.016;23.098;2022-07-22T02:02:01;-21766.97;;;23.13;52.23
7337;BME280;54510;42.016;23.098;2022-07-22T02:04:26;-21768.63;;;23.19;51.38
7337;BME280;54510;42.016;23.098;2022-07-22T02:06:52;-21764.13;;;23.03;51.97
7337;BME280;54510;42.016;23.098;2022-07-22T02:09:17;-21764.94;;;23.06;52.22
7337;BME280;54510;42.016;23.098;2022-07-22T02:11:42;-21760.69;;;22.90;52.23
7337;BME280;54510;42.016;23.098;2022-07-22T02:14:08;-21759.75;;;22.87;52.58
7337;BME280;54510;42.016;23.098;2022-07-22T02:16:33;-21756.34;;;22.74;53.65
7337;BME280;54510;42.016;23.098;2022-07-22T02:18:59;-21758.50;;;22.82;53.47
7337;BME280;54510;42.016;23.098;2022-07-22T02:21:24;-21764.53;;;23.04;53.19
7337;BME280;54510;42.016;23.098;2022-07-22T02:23:50;-21765.47;;;23.08;53.35
7337;BME280;54510;42.016;23.098;2022-07-22T02:26:15;-21764.94;;;23.06;53.34
7337;BME280;54510;42.016;23.098;2022-07-22T02:28:41;-21765.75;;;23.09;53.27
7337;BME280;54510;42.016;23.098;2022-07-22T02:31:06;-21764.81;;;23.05;53.29
7337;BME280;54510;42.016;23.098;2022-07-22T02:33:32;-21764.81;;;23.05;53.46
7337;BME280;54510;42.016;23.098;2022-07-22T02:35:57;-21764.94;;;23.06;53.44
7337;BME280;54510;42.016;23.098;2022-07-22T02:38:23;-21765.75;;;23.09;53.33
7337;BME280;54510;42.016;23.098;2022-07-22T02:40:48;-21767.81;;;23.16;53.30
7337;BME280;54510;42.016;23.098;2022-07-22T02:43:14;-21756.34;;;22.74;53.50
7337;BME280;54510;42.016;23.098;2022-07-22T02:45:39;-21765.34;;;23.07;53.15
7337;BME280;54510;42.016;23.098;2022-07-22T02:48:05;-21767.53;;;23.15;53.10
7337;BME280;54510;42.016;23.098;2022-07-22T02:50:31;-21771.22;;;23.29;53.15
7337;BME280;54510;42.016;23.098;2022-07-22T02:52:58;-21768.06;;;23.17;53.33
7337;BME280;54510;42.016;23.098;2022-07-22T02:55:23;-21772.16;;;23.33;52.56
7337;BME280;54510;42.016;23.098;2022-07-22T02:57:49;-21770.53;;;23.27;52.66
7337;BME280;54510;42.016;23.098;2022-07-22T03:00:15;-21763.97;;;23.02;53.60
7337;BME280;54510;42.016;23.098;2022-07-22T03:02:40;-21760.97;;;22.91;53.61
7337;BME280;54510;42.016;23.098;2022-07-22T03:05:07;-21761.66;;;22.94;54.07
7337;BME280;54510;42.016;23.098;2022-07-22T03:07:32;-21758.78;;;22.83;54.47
7337;BME280;54510;42.016;23.098;2022-07-22T03:09:58;-21760.16;;;22.88;54.81
7337;BME280;54510;42.016;23.098;2022-07-22T03:12:23;-21759.47;;;22.86;54.75
7337;BME280;54510;42.016;23.098;2022-07-22T03:14:49;-21760.03;;;22.88;54.36
7337;BME280;54510;42.016;23.098;2022-07-22T03:17:14;-21756.34;;;22.74;54.39
7337;BME280;54510;42.016;23.098;2022-07-22T03:19:40;-21754.97;;;22.69;54.63
7337;BME280;54510;42.016;23.098;2022-07-22T03:22:05;-21750.72;;;22.53;54.80
7337;BME280;54510;42.016;23.098;2022-07-22T03:24:31;-21746.09;;;22.36;55.11
7337;BME280;54510;42.016;23.098;2022-07-22T03:26:56;-21753.03;;;22.62;54.00
7337;BME280;54510;42.016;23.098;2022-07-22T03:29:22;-21751.69;;;22.57;53.99
7337;BME280;54510;42.016;23.098;2022-07-22T03:31:47;-21751.41;;;22.56;54.36
7337;BME280;54510;42.016;23.098;2022-07-22T03:34:13;-21749.91;;;22.50;54.69
7337;BME280;54510;42.016;23.098;2022-07-22T03:36:39;-21747.31;;;22.40;54.22
7337;BME280;54510;42.016;23.098;2022-07-22T03:39:04;-21746.09;;;22.36;54.54
7337;BME280;54510;42.016;23.098;2022-07-22T03:41:29;-21749.22;;;22.48;54.64
7337;BME280;54510;42.016;23.098;2022-07-22T03:43:55;-21751.28;;;22.55;55.14
7337;BME280;54510;42.016;23.098;2022-07-22T03:46:20;-21752.22;;;22.59;55.17
7337;BME280;54510;42.016;23.098;2022-07-22T03:48:46;-21752.50;;;22.60;55.44
7337;BME280;54510;42.016;23.098;2022-07-22T03:51:12;-21756.88;;;22.76;55.12
7337;BME280;54510;42.016;23.098;2022-07-22T03:53:38;-21754.69;;;22.68;54.77
7337;BME280;54510;42.016;23.098;2022-07-22T03:56:04;-21753.72;;;22.64;55.17
7337;BME280;54510;42.016;23.098;2022-07-22T03:58:29;-21755.50;;;22.71;54.82
7337;BME280;54510;42.016;23.098;2022-07-22T04:00:55;-21758.25;;;22.81;55.14
7337;BME280;54510;42.016;23.098;2022-07-22T04:03:21;-21761.25;;;22.92;54.40
7337;BME280;54510;42.016;23.098;2022-07-22T04:05:46;-21759.88;;;22.87;54.96
7337;BME280;54510;42.016;23.098;2022-07-22T04:08:12;-21760.03;;;22.88;55.52
7337;BME280;54510;42.016;23.098;2022-07-22T04:10:38;-21759.88;;;22.87;55.65
7337;BME280;54510;42.016;23.098;2022-07-22T04:13:04;-21755.78;;;22.72;55.51
7337;BME280;54510;42.016;23.098;2022-07-22T04:15:29;-21757.00;;;22.76;55.23
7337;BME280;54510;42.016;23.098;2022-07-22T04:17:55;-21761.38;;;22.93;54.73
7337;BME280;54510;42.016;23.098;2022-07-22T04:20:21;-21757.97;;;22.80;55.00
7337;BME280;54510;42.016;23.098;2022-07-22T04:22:46;-21760.69;;;22.90;54.80
7337;BME280;54510;42.016;23.098;2022-07-22T04:25:12;-21761.78;;;22.94;54.54
7337;BME280;54510;42.016;23.098;2022-07-22T04:27:37;-21765.34;;;23.07;53.97
7337;BME280;54510;42.016;23.098;2022-07-22T04:30:03;-21765.75;;;23.09;53.72
7337;BME280;54510;42.016;23.098;2022-07-22T04:32:29;-21767.66;;;23.16;53.62
7337;BME280;54510;42.016;23.098;2022-07-22T04:34:54;-21761.38;;;22.93;54.37
7337;BME280;54510;42.016;23.098;2022-07-22T04:37:20;-21763.84;;;23.02;54.88
7337;BME280;54510;42.016;23.098;2022-07-22T04:39:45;-21767.81;;;23.16;54.01
7337;BME280;54510;42.016;23.098;2022-07-22T04:42:11;-21768.06;;;23.17;54.35
7337;BME280;54510;42.016;23.098;2022-07-22T04:44:37;-21771.06;;;23.29;53.86
7337;BME280;54510;42.016;23.098;2022-07-22T04:47:02;-21763.16;;;22.99;54.77
7337;BME280;54510;42.016;23.098;2022-07-22T04:49:28;-21768.06;;;23.17;54.40
7337;BME280;54510;42.016;23.098;2022-07-22T04:51:53;-21769.72;;;23.23;54.38
7337;BME280;54510;42.016;23.098;2022-07-22T04:54:19;-21767.66;;;23.16;54.50
7337;BME280;54510;42.016;23.098;2022-07-22T04:56:44;-21773.41;;;23.37;53.75
7337;BME280;54510;42.016;23.098;2022-07-22T04:59:10;-21775.16;;;23.44;53.56
7337;BME280;54510;42.016;23.098;2022-07-22T05:01:36;-21772.84;;;23.35;53.76
7337;BME280;54510;42.016;23.098;2022-07-22T05:04:01;-21775.59;;;23.45;53.43
7337;BME280;54510;42.016;23.098;2022-07-22T05:06:27;-21778.44;;;23.56;53.38
7337;BME280;54510;42.016;23.098;2022-07-22T05:08:52;-21782.28;;;23.70;53.25
7337;BME280;54510;42.016;23.098;2022-07-22T05:11:18;-21782.69;;;23.72;53.03
7337;BME280;54510;42.016;23.098;2022-07-22T05:13:44;-21781.19;;;23.66;53.25
7337;BME280;54510;42.016;23.098;2022-07-22T05:16:09;-21784.47;;;23.78;53.21
7337;BME280;54510;42.016;23.098;2022-07-22T05:18:35;-21785.81;;;23.83;53.05
7337;BME280;54510;42.016;23.098;2022-07-22T05:21:01;-21787.59;;;23.90;52.46
7337;BME280;54510;42.016;23.098;2022-07-22T05:23:27;-21798.09;;;24.29;51.76
7337;BME280;54510;42.016;23.098;2022-07-22T05:25:52;-21802.19;;;24.44;51.16
7337;BME280;54510;42.016;23.098;2022-07-22T05:28:18;-21803.69;;;24.50;51.03
7337;BME280;54510;42.016;23.098;2022-07-22T05:30:44;-21803.00;;;24.47;50.94
7337;BME280;54510;42.016;23.098;2022-07-22T05:33:10;-21803.28;;;24.48;51.06
7337;BME280;54510;42.016;23.098;2022-07-22T05:35:35;-21806.53;;;24.60;50.92
7337;BME280;54510;42.016;23.098;2022-07-22T05:38:01;-21808.03;;;24.66;50.65
7337;BME280;54510;42.016;23.098;2022-07-22T05:40:26;-21810.75;;;24.76;50.57
7337;BME280;54510;42.016;23.098;2022-07-22T05:42:52;-21810.63;;;24.75;49.87
7337;BME280;54510;42.016;23.098;2022-07-22T05:45:17;-21809.94;;;24.73;50.00
7337;BME280;54510;42.016;23.098;2022-07-22T05:47:43;-21815.53;;;24.94;49.36
7337;BME280;54510;42.016;23.098;2022-07-22T05:50:08;-21819.47;;;25.08;49.17
7337;BME280;54510;42.016;23.098;2022-07-22T05:52:37;-21822.34;;;25.19;48.99
7337;BME280;54510;42.016;23.098;2022-07-22T05:55:04;-21823.84;;;25.25;48.92
7337;BME280;54510;42.016;23.098;2022-07-22T05:57:30;-21826.28;;;25.34;48.98
7337;BME280;54510;42.016;23.098;2022-07-22T05:59:55;-21830.66;;;25.50;48.54
7337;BME280;54510;42.016;23.098;2022-07-22T06:02:21;-21831.59;;;25.53;48.32
7337;BME280;54510;42.016;23.098;2022-07-22T06:04:46;-21833.78;;;25.62;48.07
7337;BME280;54510;42.016;23.098;2022-07-22T06:07:12;-21839.75;;;25.84;47.85
7337;BME280;54510;42.016;23.098;2022-07-22T06:09:37;-21843.44;;;25.98;47.29
7337;BME280;54510;42.016;23.098;2022-07-22T06:12:03;-21844.66;;;26.02;47.06
7337;BME280;54510;42.016;23.098;2022-07-22T06:14:29;-21849.28;;;26.19;46.93
7337;BME280;54510;42.016;23.098;2022-07-22T06:16:54;-21851.59;;;26.28;46.87
7337;BME280;54510;42.016;23.098;2022-07-22T06:19:20;-21855.00;;;26.41;46.96
7337;BME280;54510;42.016;23.098;2022-07-22T06:21:45;-21857.69;;;26.51;46.79
7337;BME280;54510;42.016;23.098;2022-07-22T06:24:10;-21862.59;;;26.69;46.10
7337;BME280;54510;42.016;23.098;2022-07-22T06:26:36;-21867.22;;;26.86;45.58
7337;BME280;54510;42.016;23.098;2022-07-22T06:29:02;-21869.94;;;26.96;45.46
7337;BME280;54510;42.016;23.098;2022-07-22T06:31:28;-21869.94;;;26.96;45.78
7337;BME280;54510;42.016;23.098;2022-07-22T06:33:54;-21872.66;;;27.06;45.46
7337;BME280;54510;42.016;23.098;2022-07-22T06:36:19;-21870.47;;;26.98;45.29
7337;BME280;54510;42.016;23.098;2022-07-22T06:38:45;-21871.69;;;27.03;44.96
7337;BME280;54510;42.016;23.098;2022-07-22T06:41:10;-21868.56;;;26.91;44.85
7337;BME280;54510;42.016;23.098;2022-07-22T06:43:36;-21871.69;;;27.03;45.02
7337;BME280;54510;42.016;23.098;2022-07-22T06:46:02;-21870.47;;;26.98;44.75
7337;BME280;54510;42.016;23.098;2022-07-22T06:48:27;-21873.59;;;27.10;44.80
7337;BME280;54510;42.016;23.098;2022-07-22T06:50:53;-21880.66;;;27.36;44.64
7337;BME280;54510;42.016;23.098;2022-07-22T06:53:19;-21883.50;;;27.47;44.35
7337;BME280;54510;42.016;23.098;2022-07-22T06:55:45;-21887.31;;;27.61;43.49
7337;BME280;54510;42.016;23.098;2022-07-22T06:58:10;-21892.03;;;27.79;43.44
7337;BME280;54510;42.016;23.098;2022-07-22T07:00:36;-21892.44;;;27.80;43.34
7337;BME280;54510;42.016;23.098;2022-07-22T07:03:01;-21892.19;;;27.79;43.06
7337;BME280;54510;42.016;23.098;2022-07-22T07:05:27;-21890.28;;;27.72;42.81
7337;BME280;54510;42.016;23.098;2022-07-22T07:07:54;-21890.00;;;27.71;43.29
7337;BME280;54510;42.016;23.098;2022-07-22T07:10:20;-21893.94;;;27.86;42.93
7337;BME280;54510;42.016;23.098;2022-07-22T07:12:46;-21895.69;;;27.92;42.77
7337;BME280;54510;42.016;23.098;2022-07-22T07:15:11;-21896.78;;;27.97;42.12
7337;BME280;54510;42.016;23.098;2022-07-22T07:17:37;-21898.69;;;28.04;42.49
7337;BME280;54510;42.016;23.098;2022-07-22T07:20:03;-21893.00;;;27.82;43.00
7337;BME280;54510;42.016;23.098;2022-07-22T07:22:29;-21896.25;;;27.95;42.15
7337;BME280;54510;42.016;23.098;2022-07-22T07:24:55;-21899.09;;;28.05;42.08
7337;BME280;54510;42.016;23.098;2022-07-22T07:27:20;-21905.31;;;28.28;41.71
7337;BME280;54510;42.016;23.098;2022-07-22T07:29:46;-21909.81;;;28.45;41.33
7337;BME280;54510;42.016;23.098;2022-07-22T07:32:12;-21907.22;;;28.36;40.97
7337;BME280;54510;42.016;23.098;2022-07-22T07:34:37;-21907.78;;;28.38;41.66
7337;BME280;54510;42.016;23.098;2022-07-22T07:37:04;-21914.00;;;28.61;40.20
7337;BME280;54510;42.016;23.098;2022-07-22T07:39:29;-21917.94;;;28.76;39.86
7337;BME280;54510;42.016;23.098;2022-07-22T07:41:54;-21919.81;;;28.83;39.43
7337;BME280;54510;42.016;23.098;2022-07-22T07:44:20;-21922.66;;;28.93;39.11
7337;BME280;54510;42.016;23.098;2022-07-22T07:46:46;-21925.09;;;29.02;39.24
7337;BME280;54510;42.016;23.098;2022-07-22T07:49:11;-21928.47;;;29.15;39.69
7337;BME280;54510;42.016;23.098;2022-07-22T07:51:37;-21929.28;;;29.18;38.98
7337;BME280;54510;42.016;23.098;2022-07-22T07:54:02;-21931.19;;;29.25;38.96
7337;BME280;54510;42.016;23.098;2022-07-22T07:56:28;-21935.25;;;29.40;38.15
7337;BME280;54510;42.016;23.098;2022-07-22T07:58:53;-21940.66;;;29.61;38.14
7337;BME280;54510;42.016;23.098;2022-07-22T08:01:19;-21944.03;;;29.73;38.29
7337;BME280;54510;42.016;23.098;2022-07-22T08:03:44;-21948.22;;;29.89;37.62
7337;BME280;54510;42.016;23.098;2022-07-22T08:06:10;-21947.69;;;29.87;37.91
7337;BME280;54510;42.016;23.098;2022-07-22T08:08:35;-21954.31;;;30.12;37.58
7337;BME280;54510;42.016;23.098;2022-07-22T08:11:01;-21956.47;;;30.20;37.34
7337;BME280;54510;42.016;23.098;2022-07-22T08:13:26;-21959.03;;;30.30;37.18
7337;BME280;54510;42.016;23.098;2022-07-22T08:15:52;-21960.13;;;30.34;36.94
7337;BME280;54510;42.016;23.098;2022-07-22T08:18:18;-21963.22;;;30.45;36.67
7337;BME280;54510;42.016;23.098;2022-07-22T08:20:43;-21966.31;;;30.57;34.57
7337;BME280;54510;42.016;23.098;2022-07-22T08:23:09;-21968.34;;;30.65;34.32
7337;BME280;54510;42.016;23.098;2022-07-22T08:25:34;-21972.25;;;30.79;34.70
7337;BME280;54510;42.016;23.098;2022-07-22T08:28:00;-21976.31;;;30.94;34.03
7337;BME280;54510;42.016;23.098;2022-07-22T08:30:25;-21980.38;;;31.10;34.16
7337;BME280;54510;42.016;23.098;2022-07-22T08:32:54;-21986.28;;;31.32;33.71
7337;BME280;54510;42.016;23.098;2022-07-22T08:35:20;-21989.53;;;31.44;33.66
7337;BME280;54510;42.016;23.098;2022-07-22T08:37:46;-21991.56;;;31.52;33.56
7337;BME280;54510;42.016;23.098;2022-07-22T08:40:14;-21994.13;;;31.61;33.37
7337;BME280;54510;42.016;23.098;2022-07-22T08:42:41;-22000.44;;;31.85;33.65
7337;BME280;54510;42.016;23.098;2022-07-22T08:45:08;-22004.63;;;32.01;33.90
7337;BME280;54510;42.016;23.098;2022-07-22T08:47:34;-22004.50;;;32.00;33.10
7337;BME280;54510;42.016;23.098;2022-07-22T08:50:00;-22008.13;;;32.14;33.22
7337;BME280;54510;42.016;23.098;2022-07-22T08:52:25;-22005.44;;;32.04;32.36
7337;BME280;54510;42.016;23.098;2022-07-22T08:54:51;-22013.25;;;32.33;32.64
7337;BME280;54510;42.016;23.098;2022-07-22T08:57:17;-22023.19;;;32.71;31.63
7337;BME280;54510;42.016;23.098;2022-07-22T08:59:55;-22024.53;;;32.76;32.08
7337;BME280;54510;42.016;23.098;2022-07-22T09:02:21;-22021.03;;;32.63;31.98
7337;BME280;54510;42.016;23.098;2022-07-22T09:04:55;-22028.84;;;32.92;31.02
7337;BME280;54510;42.016;23.098;2022-07-22T09:07:26;-22031.41;;;33.02;30.72
7337;BME280;54510;42.016;23.098;2022-07-22T09:09:52;-22029.38;;;32.94;31.21
7337;BME280;54510;42.016;23.098;2022-07-22T09:12:17;-22029.66;;;32.95;30.88
7337;BME280;54510;42.016;23.098;2022-07-22T09:14:47;-22031.94;;;33.04;31.05
7337;BME280;54510;42.016;23.098;2022-07-22T09:19:51;-22030.59;;;32.99;31.12
7337;BME280;54510;42.016;23.098;2022-07-22T09:22:38;-22033.94;;;33.11;30.67
7337;BME280;54510;42.016;23.098;2022-07-22T09:25:22;-22030.19;;;32.97;30.64
7337;BME280;54510;42.016;23.098;2022-07-22T09:27:49;-22027.09;;;32.85;31.73
7337;BME280;54510;42.016;23.098;2022-07-22T09:30:25;-22026.44;;;32.83;31.28
7337;BME280;54510;42.016;23.098;2022-07-22T09:32:53;-22038.53;;;33.28;30.79
7337;BME280;54510;42.016;23.098;2022-07-22T09:35:20;-22039.88;;;33.33;30.06
7337;BME280;54510;42.016;23.098;2022-07-22T09:37:52;-22047.94;;;33.64;29.77
7337;BME280;54510;42.016;23.098;2022-07-22T09:40:23;-22050.47;;;33.74;29.74
7337;BME280;54510;42.016;23.098;2022-07-22T09:43:01;-22046.19;;;33.57;28.51
7337;BME280;54510;42.016;23.098;2022-07-22T09:45:29;-22043.50;;;33.47;29.48
7337;BME280;54510;42.016;23.098;2022-07-22T09:47:56;-22052.09;;;33.80;29.34
7337;BME280;54510;42.016;23.098;2022-07-22T09:50:23;-22046.84;;;33.60;28.57
7337;BME280;54510;42.016;23.098;2022-07-22T09:52:51;-22053.03;;;33.83;28.95
7337;BME280;54510;42.016;23.098;2022-07-22T09:55:19;-22055.72;;;33.93;29.40
7337;BME280;54510;42.016;23.098;2022-07-22T09:57:45;-22056.53;;;33.96;29.24
7337;BME280;54510;42.016;23.098;2022-07-22T10:00:12;-22056.78;;;33.97;28.88
7337;BME280;54510;42.016;23.098;2022-07-22T10:02:44;-22060.81;;;34.13;29.31
7337;BME280;54510;42.016;23.098;2022-07-22T10:05:12;-22057.72;;;34.01;30.29
7337;BME280;54510;42.016;23.098;2022-07-22T10:07:40;-22056.38;;;33.96;28.90
7337;BME280;54510;42.016;23.098;2022-07-22T10:10:06;-22065.13;;;34.29;28.96
7337;BME280;54510;42.016;23.098;2022-07-22T10:12:33;-22069.81;;;34.46;28.23
7337;BME280;54510;42.016;23.098;2022-07-22T10:15:00;-22075.03;;;34.66;28.34
7337;BME280;54510;42.016;23.098;2022-07-22T10:17:26;-22081.06;;;34.89;28.22
7337;BME280;54510;42.016;23.098;2022-07-22T10:19:52;-22073.97;;;34.62;28.35
7337;BME280;54510;42.016;23.098;2022-07-22T10:25:10;-22074.50;;;34.64;28.16
7337;BME280;54510;42.016;23.098;2022-07-22T10:30:09;-22075.03;;;34.66;28.15
7337;BME280;54510;42.016;23.098;2022-07-22T10:32:35;-22072.91;;;34.58;28.61
7337;BME280;54510;42.016;23.098;2022-07-22T10:45:28;-22086.97;;;35.11;27.64
7337;BME280;54510;42.016;23.098;2022-07-22T10:48:00;-22084.56;;;35.02;28.02
7337;BME280;54510;42.016;23.098;2022-07-22T10:56:04;-22086.84;;;35.11;28.86
7337;BME280;54510;42.016;23.098;2022-07-22T11:01:06;-22087.38;;;35.13;27.75
7337;BME280;54510;42.016;23.098;2022-07-22T11:03:33;-22089.78;;;35.22;28.00
7337;BME280;54510;42.016;23.098;2022-07-22T11:06:29;-22088.97;;;35.19;27.09
7337;BME280;54510;42.016;23.098;2022-07-22T11:08:59;-22090.84;;;35.26;27.25
7337;BME280;54510;42.016;23.098;2022-07-22T11:11:54;-22092.47;;;35.32;26.79
7337;BME280;54510;42.016;23.098;2022-07-22T11:14:30;-22096.06;;;35.46;27.22
7337;BME280;54510;42.016;23.098;2022-07-22T11:17:09;-22092.31;;;35.32;26.44
7337;BME280;54510;42.016;23.098;2022-07-22T11:19:36;-22099.81;;;35.60;25.98
7337;BME280;54510;42.016;23.098;2022-07-22T11:22:07;-22106.50;;;35.85;26.11
7337;BME280;54510;42.016;23.098;2022-07-22T11:24:33;-22110.78;;;36.01;25.90
7337;BME280;54510;42.016;23.098;2022-07-22T11:27:00;-22111.47;;;36.04;25.98
7337;BME280;54510;42.016;23.098;2022-07-22T11:29:28;-22110.53;;;36.00;25.24
7337;BME280;54510;42.016;23.098;2022-07-22T11:31:56;-22113.06;;;36.10;25.08
7337;BME280;54510;42.016;23.098;2022-07-22T11:34:22;-22121.34;;;36.41;24.44
7337;BME280;54510;42.016;23.098;2022-07-22T11:36:49;-22117.63;;;36.27;24.68
7337;BME280;54510;42.016;23.098;2022-07-22T11:39:19;-22121.91;;;36.44;24.92
7337;BME280;54510;42.016;23.098;2022-07-22T11:41:45;-22132.84;;;36.85;23.57
7337;BME280;54510;42.016;23.098;2022-07-22T11:44:11;-22128.84;;;36.70;23.82
7337;BME280;54510;42.016;23.098;2022-07-22T11:46:38;-22132.97;;;36.86;24.09
7337;BME280;54510;42.016;23.098;2022-07-22T11:49:05;-22130.84;;;36.77;23.94
7337;BME280;54510;42.016;23.098;2022-07-22T11:51:32;-22137.13;;;37.01;23.53
7337;BME280;54510;42.016;23.098;2022-07-22T11:53:58;-22142.19;;;37.21;23.70
7337;BME280;54510;42.016;23.098;2022-07-22T11:56:24;-22143.81;;;37.27;23.18
7337;BME280;54510;42.016;23.098;2022-07-22T11:58:50;-22142.47;;;37.22;22.29
7337;BME280;54510;42.016;23.098;2022-07-22T12:01:20;-22146.06;;;37.35;22.52
7337;BME280;54510;42.016;23.098;2022-07-22T12:03:51;-22146.88;;;37.38;21.98
7337;BME280;54510;42.016;23.098;2022-07-22T12:06:18;-22145.53;;;37.33;21.84
7337;BME280;54510;42.016;23.098;2022-07-22T12:09:43;-22148.06;;;37.43;22.06
7337;BME280;54510;42.016;23.098;2022-07-22T12:12:03;-22152.88;;;37.61;22.20
7337;BME280;54510;42.016;23.098;2022-07-22T12:14:31;-22152.88;;;37.61;22.60
7337;BME280;54510;42.016;23.098;2022-07-22T12:19:26;-22157.81;;;37.80;22.44
7337;BME280;54510;42.016;23.098;2022-07-22T12:24:46;-22153.69;;;37.64;22.11
7337;BME280;54510;42.016;23.098;2022-07-22T12:27:17;-22158.22;;;37.81;22.84
7337;BME280;54510;42.016;23.098;2022-07-22T12:29:48;-22163.53;;;38.02;22.48
7337;BME280;54510;42.016;23.098;2022-07-22T12:34:46;-22172.88;;;38.37;21.16
7337;BME280;54510;42.016;23.098;2022-07-22T12:37:18;-22176.72;;;38.52;22.16
7337;BME280;54510;42.016;23.098;2022-07-22T12:42:39;-22185.66;;;38.86;20.94
7337;BME280;54510;42.016;23.098;2022-07-22T12:45:06;-22184.59;;;38.82;20.54
7337;BME280;54510;42.016;23.098;2022-07-22T12:47:55;-22172.59;;;38.36;20.01
7337;BME280;54510;42.016;23.098;2022-07-22T12:50:29;-22168.06;;;38.19;20.32
7337;BME280;54510;42.016;23.098;2022-07-22T12:55:24;-22173.13;;;38.38;19.08
7337;BME280;54510;42.016;23.098;2022-07-22T12:57:50;-22176.06;;;38.49;19.29
7337;BME280;54510;42.016;23.098;2022-07-22T13:00:20;-22179.94;;;38.64;19.00
7337;BME280;54510;42.016;23.098;2022-07-22T13:02:47;-22183.00;;;38.76;18.33
7337;BME280;54510;42.016;23.098;2022-07-22T13:05:12;-22186.84;;;38.90;17.84
7337;BME280;54510;42.016;23.098;2022-07-22T13:07:39;-22188.84;;;38.98;17.96
7337;BME280;54510;42.016;23.098;2022-07-22T13:10:05;-22183.53;;;38.78;17.93
7337;BME280;54510;42.016;23.098;2022-07-22T13:12:30;-22191.78;;;39.09;18.68
7337;BME280;54510;42.016;23.098;2022-07-22T13:14:56;-22191.09;;;39.06;18.12
7337;BME280;54510;42.016;23.098;2022-07-22T13:17:21;-22200.28;;;39.41;17.81
7337;BME280;54510;42.016;23.098;2022-07-22T13:19:46;-22192.84;;;39.13;17.95
7337;BME280;54510;42.016;23.098;2022-07-22T13:22:12;-22193.63;;;39.16;17.81
7337;BME280;54510;42.016;23.098;2022-07-22T13:24:37;-22201.75;;;39.47;18.61
7337;BME280;54510;42.016;23.098;2022-07-22T13:27:03;-22203.88;;;39.55;18.47
7337;BME280;54510;42.016;23.098;2022-07-22T13:29:28;-22199.47;;;39.38;18.45
7337;BME280;54510;42.016;23.098;2022-07-22T13:31:54;-22204.94;;;39.59;18.48
7337;BME280;54510;42.016;23.098;2022-07-22T13:34:19;-22209.19;;;39.75;17.88